MyWebLog Booking Liste

 

Nyhetsmelding

Kopirett © 2014 Værnes Flyklubb. Alle rettigheter reservert.
Joomla! er fri programvare utgitt under GNU/GPL License.
 

METAR

ENVA 191920Z 12004KT CAVOK 12/09 Q1016 NOSIG RMK WIND 670FT 11004KT

TAF ENVA 191700Z 1918/2018 VRB05KT 9999 FEW050 BKN100 PROB30 2015/2018 26010KT -DZRA BKN014